createdAt,value
2018-07-03T00:01:43.210Z,1.40
2018-07-03T00:04:12.414Z,1.37
2018-07-03T00:06:42.327Z,1.30
2018-07-03T00:09:10.977Z,0.90
2018-07-03T00:11:40.142Z,1.40
2018-07-03T00:14:08.670Z,1.30
2018-07-03T00:16:43.534Z,1.30
2018-07-03T00:19:12.117Z,1.10
2018-07-03T00:21:40.666Z,1.20
2018-07-03T00:24:09.241Z,0.90
2018-07-03T00:26:39.085Z,1.00
2018-07-03T00:29:07.629Z,1.23
2018-07-03T00:31:37.176Z,1.20
2018-07-03T00:34:06.181Z,0.87
2018-07-03T00:36:34.717Z,1.57
2018-07-03T00:39:05.893Z,2.80
2018-07-03T00:41:35.036Z,1.30
2018-07-03T00:44:03.281Z,1.30
2018-07-03T00:46:31.817Z,1.47
2018-07-03T00:49:00.397Z,1.00
2018-07-03T00:51:29.494Z,1.30
2018-07-03T00:53:59.305Z,0.93
2018-07-03T00:56:27.529Z,0.67
2018-07-03T00:58:56.748Z,1.30
2018-07-03T01:01:25.318Z,1.00
2018-07-03T01:03:53.928Z,1.00
2018-07-03T01:06:22.470Z,0.77
2018-07-03T01:08:51.708Z,1.20
2018-07-03T01:11:20.729Z,1.20
2018-07-03T01:13:48.982Z,0.87
2018-07-03T01:16:17.566Z,1.00
2018-07-03T01:18:46.150Z,0.73
2018-07-03T01:21:14.686Z,1.03
2018-07-03T01:23:43.233Z,1.03
2018-07-03T01:26:11.490Z,1.20
2018-07-03T01:28:40.075Z,1.00
2018-07-03T01:31:08.674Z,0.87
2018-07-03T01:33:36.895Z,1.30
2018-07-03T01:36:05.661Z,0.90
2018-07-03T01:38:34.578Z,1.17
2018-07-03T01:41:03.429Z,1.30
2018-07-03T01:43:31.649Z,0.97
2018-07-03T01:46:00.246Z,1.40
2018-07-03T01:48:29.384Z,1.10
2018-07-03T01:50:58.353Z,1.30
2018-07-03T01:53:26.931Z,1.00
2018-07-03T01:55:56.184Z,1.40
2018-07-03T01:58:24.770Z,1.93
2018-07-03T02:00:53.359Z,2.07
2018-07-03T02:03:21.908Z,1.60
2018-07-03T02:05:50.161Z,1.67
2018-07-03T02:08:18.722Z,1.63
2018-07-03T02:10:47.534Z,1.30
2018-07-03T02:13:16.101Z,1.23
2018-07-03T02:15:44.684Z,0.80
2018-07-03T02:18:13.877Z,1.30
2018-07-03T02:20:42.818Z,1.00
2018-07-03T02:23:11.553Z,0.97
2018-07-03T02:25:40.145Z,0.97
2018-07-03T02:28:08.742Z,1.00
2018-07-03T02:30:37.298Z,1.10
2018-07-03T02:33:05.912Z,1.20
2018-07-03T02:35:34.457Z,0.90
2018-07-03T02:38:04.117Z,0.90
2018-07-03T02:40:32.688Z,1.17
2018-07-03T02:43:01.263Z,1.27
2018-07-03T02:45:29.829Z,1.43
2018-07-03T02:47:58.405Z,1.03
2018-07-03T02:50:26.957Z,1.20
2018-07-03T02:52:56.482Z,1.30
2018-07-03T02:55:25.078Z,1.10
2018-07-03T02:57:54.148Z,1.10
2018-07-03T03:00:22.377Z,1.07
2018-07-03T03:02:50.969Z,1.20
2018-07-03T03:05:19.501Z,1.10
2018-07-03T03:07:48.055Z,1.10
2018-07-03T03:10:16.693Z,1.10
2018-07-03T03:12:45.286Z,1.00
2018-07-03T03:15:13.870Z,1.03
2018-07-03T03:17:42.456Z,1.33
2018-07-03T03:20:11.069Z,1.20
2018-07-03T03:22:40.815Z,1.33
2018-07-03T03:25:09.397Z,1.07
2018-07-03T03:27:37.626Z,1.03
2018-07-03T03:30:06.512Z,1.13
2018-07-03T03:32:35.400Z,0.97
2018-07-03T03:35:04.910Z,1.20
2018-07-03T03:37:33.591Z,1.00
2018-07-03T03:40:02.246Z,1.07
2018-07-03T03:42:30.455Z,1.10
2018-07-03T03:44:59.501Z,1.70
2018-07-03T03:47:28.336Z,1.40
2018-07-03T03:49:58.177Z,1.40
2018-07-03T03:52:27.057Z,1.17
2018-07-03T03:54:55.654Z,1.53
2018-07-03T03:57:24.209Z,1.30
2018-07-03T03:59:52.845Z,1.70
2018-07-03T04:02:21.398Z,1.90
2018-07-03T04:04:50.218Z,1.60
2018-07-03T04:07:18.825Z,1.30
2018-07-03T04:09:47.059Z,1.10
2018-07-03T04:12:15.621Z,0.97
2018-07-03T04:14:44.191Z,1.60
2018-07-03T04:19:46.738Z,1.40
2018-07-03T04:22:15.288Z,1.10
2018-07-03T04:24:43.870Z,1.43
2018-07-03T04:27:12.501Z,1.00
2018-07-03T04:29:41.073Z,1.20
2018-07-03T04:32:09.659Z,1.53
2018-07-03T04:34:38.253Z,1.47
2018-07-03T04:37:07.513Z,1.40
2018-07-03T04:39:36.362Z,1.23
2018-07-03T04:42:05.824Z,1.20
2018-07-03T04:44:34.394Z,1.40
2018-07-03T04:47:02.971Z,1.20
2018-07-03T04:49:31.635Z,1.20
2018-07-03T04:52:00.585Z,1.43
2018-07-03T04:54:29.130Z,1.30
2018-07-03T04:56:57.764Z,1.20
2018-07-03T04:59:26.329Z,1.27
2018-07-03T05:01:54.926Z,1.27
2018-07-03T05:04:23.481Z,1.30
2018-07-03T05:06:52.902Z,1.30
2018-07-03T05:09:22.021Z,1.30
2018-07-03T05:11:53.836Z,1.20
2018-07-03T05:14:26.184Z,0.87
2018-07-03T05:16:58.703Z,1.20
2018-07-03T05:19:29.369Z,1.73
2018-07-03T05:22:00.037Z,1.47
2018-07-03T05:24:29.360Z,1.13
2018-07-03T05:26:58.025Z,1.20
2018-07-03T05:29:26.568Z,1.27
2018-07-03T05:31:56.049Z,1.73
2018-07-03T05:34:27.559Z,1.30
2018-07-03T05:36:56.994Z,1.23
2018-07-03T05:39:25.632Z,1.10
2018-07-03T05:41:53.842Z,1.07
2018-07-03T05:44:25.171Z,2.10
2018-07-03T05:46:53.824Z,1.63
2018-07-03T05:49:27.507Z,1.40
2018-07-03T05:52:01.144Z,1.80
2018-07-03T05:54:32.106Z,1.20
2018-07-03T05:57:05.097Z,1.40
2018-07-03T05:59:33.884Z,1.93
2018-07-03T06:02:02.447Z,1.30
2018-07-03T06:04:30.720Z,1.47
2018-07-03T06:06:59.139Z,1.13
2018-07-03T06:09:27.656Z,1.20
2018-07-03T06:11:56.262Z,0.90
2018-07-03T06:14:24.901Z,1.37
2018-07-03T06:16:56.494Z,1.00
2018-07-03T06:19:26.729Z,1.00
2018-07-03T06:21:55.825Z,1.20
2018-07-03T06:24:25.461Z,1.20
2018-07-03T06:26:54.062Z,1.17
2018-07-03T06:29:22.782Z,1.10
2018-07-03T06:31:51.473Z,0.97
2018-07-03T06:34:20.153Z,1.30
2018-07-03T06:36:48.773Z,0.80
2018-07-03T06:39:17.035Z,0.73
2018-07-03T06:41:46.145Z,0.93
2018-07-03T06:44:15.065Z,0.90
2018-07-03T06:46:44.995Z,1.00
2018-07-03T06:49:13.574Z,0.70
2018-07-03T06:51:42.275Z,0.90
2018-07-03T06:54:10.858Z,0.73
2018-07-03T06:56:40.280Z,0.80
2018-07-03T06:59:09.591Z,0.80
2018-07-03T07:01:39.053Z,0.80
2018-07-03T07:04:08.300Z,0.77
2018-07-03T07:06:36.951Z,0.60
2018-07-03T07:09:07.784Z,0.80
2018-07-03T07:11:36.634Z,1.47
2018-07-03T07:14:05.304Z,1.00
2018-07-03T07:16:33.930Z,0.97
2018-07-03T07:19:03.177Z,0.67
2018-07-03T07:21:32.525Z,0.70
2018-07-03T07:24:01.091Z,0.73
2018-07-03T07:26:29.715Z,0.60
2018-07-03T07:28:58.350Z,0.70
2018-07-03T07:31:26.983Z,0.73
2018-07-03T07:34:00.679Z,0.67
2018-07-03T07:36:29.874Z,0.60
2018-07-03T07:38:59.186Z,0.50
2018-07-03T07:41:27.981Z,0.70
2018-07-03T07:43:56.563Z,0.77
2018-07-03T07:48:54.636Z,0.70
2018-07-03T07:51:23.220Z,0.63
2018-07-03T07:53:51.900Z,0.67
2018-07-03T07:56:20.920Z,0.73
2018-07-03T07:58:49.762Z,0.50
2018-07-03T08:01:18.374Z,1.10
2018-07-03T08:03:47.490Z,0.80
2018-07-03T08:06:17.233Z,0.53
2018-07-03T08:08:46.496Z,0.77
2018-07-03T08:11:15.741Z,0.53
2018-07-03T08:13:44.375Z,0.80
2018-07-03T08:16:13.025Z,0.50
2018-07-03T08:18:41.767Z,0.60
2018-07-03T08:21:10.676Z,1.00
2018-07-03T08:23:40.189Z,0.83
2018-07-03T08:26:08.785Z,1.00
2018-07-03T08:28:37.444Z,0.60
2018-07-03T08:31:06.061Z,0.80
2018-07-03T08:33:35.127Z,0.70
2018-07-03T08:36:04.346Z,0.80
2018-07-03T08:38:33.600Z,0.80
2018-07-03T08:41:02.235Z,0.50
2018-07-03T08:43:30.849Z,0.80
2018-07-03T08:45:59.102Z,0.80
2018-07-03T08:48:27.778Z,0.77
2018-07-03T08:50:57.067Z,0.77
2018-07-03T08:53:25.684Z,0.93
2018-07-03T08:55:54.453Z,0.80
2018-07-03T08:58:23.753Z,0.70
2018-07-03T09:00:52.381Z,0.77
2018-07-03T09:03:20.926Z,0.80
2018-07-03T09:05:49.588Z,0.57
2018-07-03T09:08:18.837Z,0.60
2018-07-03T09:10:47.113Z,0.57
2018-07-03T09:13:15.674Z,0.83
2018-07-03T09:15:44.262Z,0.70
2018-07-03T09:18:12.925Z,0.47
2018-07-03T09:20:41.518Z,0.97
2018-07-03T09:23:10.075Z,0.60
2018-07-03T09:25:39.075Z,0.50
2018-07-03T09:28:07.756Z,0.70
2018-07-03T09:30:36.356Z,0.60
2018-07-03T09:33:05.318Z,0.70
2018-07-03T09:35:33.934Z,0.80
2018-07-03T09:38:02.520Z,0.60
2018-07-03T09:40:31.129Z,0.80
2018-07-03T09:42:59.765Z,0.60
2018-07-03T09:45:28.558Z,0.57
2018-07-03T09:47:57.257Z,1.00
2018-07-03T09:50:26.561Z,0.67
2018-07-03T09:52:55.173Z,0.70
2018-07-03T09:55:23.781Z,0.67
2018-07-03T09:57:52.267Z,0.70
2018-07-03T10:00:25.971Z,1.20
2018-07-03T10:02:54.311Z,0.60
2018-07-03T10:05:22.909Z,0.73
2018-07-03T10:07:52.914Z,0.67
2018-07-03T10:10:21.561Z,0.67
2018-07-03T10:12:50.212Z,0.70
2018-07-03T10:15:18.806Z,0.60
2018-07-03T10:17:47.514Z,0.70
2018-07-03T10:20:16.170Z,0.77
2018-07-03T10:22:44.916Z,0.73
2018-07-03T10:25:13.576Z,0.90
2018-07-03T10:27:42.210Z,0.80
2018-07-03T10:30:10.790Z,0.70
2018-07-03T10:32:39.443Z,1.17
2018-07-03T10:35:08.069Z,0.70
2018-07-03T10:37:36.729Z,0.90
2018-07-03T10:40:05.880Z,1.07
2018-07-03T10:42:34.511Z,0.77
2018-07-03T10:45:03.359Z,0.80
2018-07-03T10:47:31.586Z,0.70
2018-07-03T10:50:00.865Z,0.80
2018-07-03T10:52:30.198Z,0.70
2018-07-03T10:54:59.057Z,0.83
2018-07-03T10:57:27.771Z,0.80
2018-07-03T10:59:56.594Z,0.70
2018-07-03T11:02:25.637Z,0.77
2018-07-03T11:04:54.573Z,0.80
2018-07-03T11:07:24.153Z,0.80
2018-07-03T11:09:52.813Z,0.70
2018-07-03T11:12:21.702Z,0.73
2018-07-03T11:14:50.458Z,0.80
2018-07-03T11:17:19.228Z,0.80
2018-07-03T11:19:48.188Z,0.80
2018-07-03T11:22:16.793Z,0.97
2018-07-03T11:24:45.567Z,0.80
2018-07-03T11:27:18.382Z,0.90
2018-07-03T11:29:48.143Z,1.10
2018-07-03T11:32:16.973Z,0.93
2018-07-03T11:34:46.277Z,0.80
2018-07-03T11:37:15.373Z,0.80
2018-07-03T11:39:44.014Z,0.97
2018-07-03T11:42:12.827Z,1.10
2018-07-03T11:44:41.684Z,0.83
2018-07-03T11:47:10.499Z,0.70
2018-07-03T11:49:39.309Z,0.87
2018-07-03T11:52:08.617Z,0.63
2018-07-03T11:54:37.371Z,0.90
2018-07-03T11:57:06.052Z,0.80
2018-07-03T11:59:35.849Z,0.80
2018-07-03T12:02:04.240Z,0.90
2018-07-03T12:04:32.917Z,0.80
2018-07-03T12:07:01.586Z,0.70
2018-07-03T12:09:30.900Z,0.80
2018-07-03T12:11:59.163Z,0.70
2018-07-03T12:14:27.803Z,0.83
2018-07-03T12:16:56.535Z,0.73
2018-07-03T12:19:25.425Z,0.70
2018-07-03T12:21:54.063Z,1.10
2018-07-03T12:24:22.695Z,0.70
2018-07-03T12:26:52.890Z,0.63
2018-07-03T12:29:22.080Z,0.60
2018-07-03T12:31:50.767Z,1.10
2018-07-03T12:34:20.168Z,0.90
2018-07-03T12:36:50.274Z,0.70
2018-07-03T12:39:18.820Z,0.87
2018-07-03T12:41:47.498Z,1.00
2018-07-03T12:44:17.434Z,0.90
2018-07-03T12:46:45.751Z,1.00
2018-07-03T12:49:14.844Z,1.07
2018-07-03T12:51:43.486Z,0.90
2018-07-03T12:54:11.806Z,0.77
2018-07-03T12:56:40.502Z,0.90
2018-07-03T12:59:10.103Z,0.80
2018-07-03T13:01:38.697Z,0.90
2018-07-03T13:04:07.546Z,0.77
2018-07-03T13:06:36.169Z,0.97
2018-07-03T13:09:08.141Z,0.70
2018-07-03T13:11:37.605Z,0.80
2018-07-03T13:14:06.277Z,0.83
2018-07-03T13:16:35.317Z,0.80
2018-07-03T13:19:04.377Z,0.90
2018-07-03T13:21:33.485Z,1.17
2018-07-03T13:24:03.370Z,0.90
2018-07-03T13:26:32.034Z,0.90
2018-07-03T13:29:01.433Z,0.97
2018-07-03T13:31:30.087Z,0.83
2018-07-03T13:34:01.295Z,0.70
2018-07-03T13:36:30.771Z,0.87
2018-07-03T13:38:59.372Z,0.83
2018-07-03T13:41:28.064Z,0.67
2018-07-03T13:43:56.641Z,0.87
2018-07-03T13:46:25.351Z,0.70
2018-07-03T13:48:53.894Z,0.70
2018-07-03T13:51:22.971Z,0.80
2018-07-03T13:53:51.727Z,0.80
2018-07-03T13:56:19.981Z,0.97
2018-07-03T13:58:49.869Z,1.00
2018-07-03T14:01:18.465Z,0.87
2018-07-03T14:03:47.979Z,0.80
2018-07-03T14:06:16.609Z,0.77
2018-07-03T14:08:45.228Z,0.97
2018-07-03T14:11:13.794Z,1.00
2018-07-03T14:13:42.415Z,0.90
2018-07-03T14:16:11.029Z,0.90
2018-07-03T14:18:40.115Z,0.80
2018-07-03T14:21:08.453Z,1.10
2018-07-03T14:23:42.893Z,0.90
2018-07-03T14:26:11.743Z,0.80
2018-07-03T14:28:41.203Z,1.20
2018-07-03T14:31:09.891Z,0.93
2018-07-03T14:33:39.018Z,0.80
2018-07-03T14:36:08.505Z,0.70
2018-07-03T14:38:37.062Z,1.00
2018-07-03T14:41:05.957Z,0.87
2018-07-03T14:43:34.518Z,1.13
2018-07-03T14:46:03.893Z,1.00
2018-07-03T14:48:32.497Z,1.03
2018-07-03T14:51:01.084Z,0.90
2018-07-03T14:53:29.785Z,1.00
2018-07-03T14:55:58.349Z,0.90
2018-07-03T14:58:26.935Z,0.80
2018-07-03T15:00:55.473Z,1.07
2018-07-03T15:03:24.123Z,0.97
2018-07-03T15:05:54.025Z,1.30
2018-07-03T15:08:22.614Z,1.00
2018-07-03T15:10:53.108Z,0.97
2018-07-03T15:13:21.673Z,0.97
2018-07-03T15:15:50.261Z,1.10
2018-07-03T15:18:18.521Z,1.20
2018-07-03T15:20:47.090Z,0.70
2018-07-03T15:23:15.665Z,1.27
2018-07-03T15:25:44.310Z,0.80
2018-07-03T15:28:12.901Z,0.90
2018-07-03T15:30:41.461Z,0.90
2018-07-03T15:33:09.730Z,1.00
2018-07-03T15:35:38.273Z,1.00
2018-07-03T15:38:06.873Z,0.70
2018-07-03T15:40:35.488Z,0.90
2018-07-03T15:43:03.769Z,0.70
2018-07-03T15:45:31.999Z,1.10
2018-07-03T15:48:00.548Z,0.90
2018-07-03T15:50:29.164Z,0.80
2018-07-03T15:52:57.726Z,0.90
2018-07-03T15:55:26.362Z,1.00
2018-07-03T15:57:54.945Z,1.13
2018-07-03T16:00:23.551Z,1.10
2018-07-03T16:02:57.310Z,1.27
2018-07-03T16:05:37.505Z,0.90
2018-07-03T16:09:13.973Z,0.90
2018-07-03T16:11:43.077Z,1.10
2018-07-03T16:14:12.997Z,1.00
2018-07-03T16:16:42.148Z,1.10
2018-07-03T16:19:16.213Z,0.70
2018-07-03T16:21:44.923Z,0.90
2018-07-03T16:24:13.781Z,1.20
2018-07-03T16:26:42.449Z,1.10
2018-07-03T16:29:12.533Z,1.00
2018-07-03T16:31:41.370Z,1.10
2018-07-03T16:34:10.108Z,1.57
2018-07-03T16:36:38.731Z,0.93
2018-07-03T16:39:09.438Z,0.80
2018-07-03T16:41:39.227Z,0.90
2018-07-03T16:44:08.342Z,0.90
2018-07-03T16:46:37.685Z,0.93
2018-07-03T16:49:06.286Z,0.57
2018-07-03T16:51:34.937Z,0.70
2018-07-03T16:54:03.536Z,0.97
2018-07-03T16:56:32.113Z,0.90
2018-07-03T16:59:00.775Z,0.60
2018-07-03T17:01:29.404Z,0.70
2018-07-03T17:03:57.993Z,0.70
2018-07-03T17:06:27.313Z,0.90
2018-07-03T17:08:55.556Z,0.80
2018-07-03T17:11:24.158Z,1.03
2018-07-03T17:13:52.868Z,0.70
2018-07-03T17:16:21.609Z,0.70
2018-07-03T17:19:57.321Z,0.83
2018-07-03T17:22:26.480Z,0.73
2018-07-03T17:24:55.664Z,1.07
2018-07-03T17:27:24.266Z,1.40
2018-07-03T17:29:52.824Z,0.90
2018-07-03T17:32:21.407Z,0.90
2018-07-03T17:34:49.988Z,0.80
2018-07-03T17:37:18.570Z,1.10
2018-07-03T17:39:58.389Z,0.70
2018-07-03T17:42:38.921Z,1.00
2018-07-03T17:45:45.484Z,1.20
2018-07-03T17:48:15.494Z,0.83
2018-07-03T17:50:44.617Z,0.97
2018-07-03T17:53:13.530Z,0.67
2018-07-03T17:55:42.557Z,0.80
2018-07-03T17:58:11.203Z,1.20
2018-07-03T18:00:39.892Z,0.90
2018-07-03T18:03:08.388Z,0.80
2018-07-03T18:05:36.798Z,0.77
2018-07-03T18:08:05.606Z,0.77
2018-07-03T18:10:34.161Z,0.97
2018-07-03T18:13:03.561Z,1.00
2018-07-03T18:15:32.698Z,0.97
2018-07-03T18:18:02.063Z,1.10
2018-07-03T18:20:30.646Z,0.90
2018-07-03T18:22:59.253Z,0.87
2018-07-03T18:25:27.860Z,1.00
2018-07-03T18:27:56.456Z,0.80
2018-07-03T18:30:25.043Z,0.70
2018-07-03T18:32:53.732Z,0.70
2018-07-03T18:35:22.297Z,0.97
2018-07-03T18:37:51.049Z,0.73
2018-07-03T18:40:19.688Z,0.80
2018-07-03T18:42:48.750Z,0.80
2018-07-03T18:45:17.351Z,0.90
2018-07-03T18:47:45.932Z,1.40
2018-07-03T18:50:14.529Z,1.00
2018-07-03T18:52:43.100Z,0.93
2018-07-03T18:55:12.211Z,0.90
2018-07-03T18:57:41.457Z,0.90
2018-07-03T19:00:10.813Z,0.83
2018-07-03T19:02:39.379Z,0.90
2018-07-03T19:05:08.497Z,0.90
2018-07-03T19:07:38.404Z,0.70
2018-07-03T19:10:07.877Z,0.73
2018-07-03T19:12:37.180Z,1.20
2018-07-03T19:15:06.826Z,0.80
2018-07-03T19:17:35.459Z,1.20
2018-07-03T19:20:04.175Z,0.97
2018-07-03T19:22:32.949Z,1.07
2018-07-03T19:25:02.435Z,1.33
2018-07-03T19:27:31.050Z,1.30
2018-07-03T19:29:59.713Z,0.90
2018-07-03T19:32:28.286Z,1.10
2018-07-03T19:34:57.590Z,1.20
2018-07-03T19:37:26.127Z,1.50
2018-07-03T19:39:55.165Z,1.83
2018-07-03T19:42:23.840Z,1.30
2018-07-03T19:44:52.396Z,1.60
2018-07-03T19:47:21.010Z,1.80
2018-07-03T19:49:49.589Z,1.90
2018-07-03T19:52:18.205Z,1.70
2018-07-03T19:54:46.872Z,1.53
2018-07-03T19:57:15.594Z,1.10
2018-07-03T19:59:44.673Z,1.73
2018-07-03T20:02:13.415Z,1.00
2018-07-03T20:04:43.082Z,0.87
2018-07-03T20:07:11.744Z,1.07
2018-07-03T20:09:40.379Z,1.03
2018-07-03T20:12:09.062Z,0.93
2018-07-03T20:14:37.744Z,1.00
2018-07-03T20:17:06.403Z,1.23
2018-07-03T20:19:34.981Z,1.50
2018-07-03T20:22:03.593Z,1.50
2018-07-03T20:24:32.732Z,1.87
2018-07-03T20:27:02.059Z,2.00
2018-07-03T20:29:30.647Z,1.87
2018-07-03T20:31:59.254Z,2.60
2018-07-03T20:34:27.828Z,1.87
2018-07-03T20:36:56.750Z,1.97
2018-07-03T20:39:25.777Z,1.10
2018-07-03T20:41:54.021Z,1.30
2018-07-03T20:44:22.593Z,0.90
2018-07-03T20:46:51.797Z,0.80
2018-07-03T20:49:20.369Z,0.80
2018-07-03T20:51:49.013Z,0.80
2018-07-03T20:54:17.626Z,0.70
2018-07-03T20:56:46.277Z,1.10
2018-07-03T20:59:14.858Z,1.20
2018-07-03T21:01:43.402Z,1.47
2018-07-03T21:04:12.293Z,1.83
2018-07-03T21:06:40.673Z,2.03
2018-07-03T21:09:10.325Z,2.00
2018-07-03T21:11:38.646Z,2.03
2018-07-03T21:14:07.226Z,2.03
2018-07-03T21:16:35.833Z,2.00
2018-07-03T21:19:04.550Z,1.87
2018-07-03T21:21:32.772Z,1.90
2018-07-03T21:24:01.424Z,1.60
2018-07-03T21:26:29.935Z,1.47
2018-07-03T21:28:58.539Z,1.00
2018-07-03T21:31:27.145Z,1.33
2018-07-03T21:33:55.746Z,1.10
2018-07-03T21:36:23.966Z,1.13
2018-07-03T21:38:52.585Z,0.80
2018-07-03T21:41:21.153Z,0.90
2018-07-03T21:43:49.712Z,1.17
2018-07-03T21:46:18.741Z,1.10
2018-07-03T21:48:47.314Z,1.10
2018-07-03T21:51:16.033Z,1.20
2018-07-03T21:53:44.594Z,1.00
2018-07-03T21:56:13.166Z,1.13
2018-07-03T21:58:41.728Z,1.23
2018-07-03T22:01:10.362Z,1.40
2018-07-03T22:03:38.970Z,1.63
2018-07-03T22:06:07.211Z,2.20
2018-07-03T22:08:35.814Z,1.20
2018-07-03T22:11:04.468Z,1.30
2018-07-03T22:13:33.076Z,1.33
2018-07-03T22:16:01.680Z,0.93
2018-07-03T22:18:31.245Z,1.60
2018-07-03T22:20:59.857Z,1.20
2018-07-03T22:23:28.410Z,1.40
2018-07-03T22:25:57.026Z,1.07
2018-07-03T22:28:25.723Z,1.13
2018-07-03T22:30:54.708Z,1.13
2018-07-03T22:33:23.474Z,1.20
2018-07-03T22:35:52.178Z,1.30
2018-07-03T22:38:22.093Z,1.00
2018-07-03T22:40:50.696Z,0.90
2018-07-03T22:43:19.286Z,1.17
2018-07-03T22:45:47.548Z,1.13
2018-07-03T22:48:16.123Z,1.10
2018-07-03T22:50:44.677Z,0.90
2018-07-03T22:53:13.284Z,0.87
2018-07-03T22:55:41.845Z,1.10
2018-07-03T22:58:10.421Z,0.70
2018-07-03T23:00:38.969Z,1.00
2018-07-03T23:03:07.187Z,0.90
2018-07-03T23:05:36.208Z,0.90
2018-07-03T23:08:05.025Z,1.00
2018-07-03T23:10:33.594Z,1.00
2018-07-03T23:13:02.161Z,0.90
2018-07-03T23:15:30.734Z,1.13
2018-07-03T23:17:59.340Z,1.07
2018-07-03T23:20:27.926Z,1.10
2018-07-03T23:22:56.498Z,0.80
2018-07-03T23:25:25.077Z,1.37
2018-07-03T23:27:53.714Z,1.00
2018-07-03T23:30:21.914Z,1.00
2018-07-03T23:32:51.030Z,1.80
2018-07-03T23:35:20.388Z,1.30
2018-07-03T23:37:48.629Z,1.23
2018-07-03T23:40:17.163Z,0.93
2018-07-03T23:42:45.782Z,1.20
2018-07-03T23:45:14.365Z,1.33
2018-07-03T23:47:54.160Z,1.10
2018-07-03T23:50:27.960Z,1.27
2018-07-03T23:53:08.205Z,1.10
2018-07-03T23:55:48.446Z,0.97
2018-07-03T23:58:28.510Z,1.30
